sensor_id;sensor_type;location;lat;lon;timestamp;temperature;humidity
20446;DHT22;10382;49.140;9.234;2024-02-23T00:00:12;8.50;99.90
20446;DHT22;10382;49.140;9.234;2024-02-23T00:02:39;8.50;99.90
20446;DHT22;10382;49.140;9.234;2024-02-23T00:05:06;8.50;99.90
20446;DHT22;10382;49.140;9.234;2024-02-23T00:07:33;8.50;99.90
20446;DHT22;10382;49.140;9.234;2024-02-23T00:10:00;8.50;99.90
20446;DHT22;10382;49.140;9.234;2024-02-23T00:12:26;8.40;99.90
20446;DHT22;10382;49.140;9.234;2024-02-23T00:14:55;8.40;99.90
20446;DHT22;10382;49.140;9.234;2024-02-23T00:17:21;8.40;99.90
20446;DHT22;10382;49.140;9.234;2024-02-23T00:19:48;8.30;99.90
20446;DHT22;10382;49.140;9.234;2024-02-23T00:22:18;8.30;99.90
20446;DHT22;10382;49.140;9.234;2024-02-23T00:24:45;8.30;99.90
20446;DHT22;10382;49.140;9.234;2024-02-23T00:27:11;8.30;99.90
20446;DHT22;10382;49.140;9.234;2024-02-23T00:29:38;8.30;99.90
20446;DHT22;10382;49.140;9.234;2024-02-23T00:32:07;8.30;99.90
20446;DHT22;10382;49.140;9.234;2024-02-23T00:34:34;8.30;99.90
20446;DHT22;10382;49.140;9.234;2024-02-23T00:37:01;8.30;99.90
20446;DHT22;10382;49.140;9.234;2024-02-23T00:39:29;8.30;99.90
20446;DHT22;10382;49.140;9.234;2024-02-23T00:41:56;8.30;99.90
20446;DHT22;10382;49.140;9.234;2024-02-23T00:44:23;8.30;99.90
20446;DHT22;10382;49.140;9.234;2024-02-23T00:46:50;8.30;99.90
20446;DHT22;10382;49.140;9.234;2024-02-23T00:49:18;8.20;99.90
20446;DHT22;10382;49.140;9.234;2024-02-23T00:51:45;8.20;99.90
20446;DHT22;10382;49.140;9.234;2024-02-23T00:54:12;8.20;99.90
20446;DHT22;10382;49.140;9.234;2024-02-23T00:56:39;8.20;99.90
20446;DHT22;10382;49.140;9.234;2024-02-23T00:59:06;8.20;99.90
20446;DHT22;10382;49.140;9.234;2024-02-23T01:01:33;8.30;99.90
20446;DHT22;10382;49.140;9.234;2024-02-23T01:03:59;8.30;99.90
20446;DHT22;10382;49.140;9.234;2024-02-23T01:06:28;8.20;99.90
20446;DHT22;10382;49.140;9.234;2024-02-23T01:08:55;8.20;99.90
20446;DHT22;10382;49.140;9.234;2024-02-23T01:11:21;8.20;99.90
20446;DHT22;10382;49.140;9.234;2024-02-23T01:13:48;8.30;99.90
20446;DHT22;10382;49.140;9.234;2024-02-23T01:16:16;8.30;99.90
20446;DHT22;10382;49.140;9.234;2024-02-23T01:18:43;8.20;99.90
20446;DHT22;10382;49.140;9.234;2024-02-23T01:21:10;8.20;99.90
20446;DHT22;10382;49.140;9.234;2024-02-23T01:23:38;8.20;99.90
20446;DHT22;10382;49.140;9.234;2024-02-23T01:26:05;8.10;99.90
20446;DHT22;10382;49.140;9.234;2024-02-23T01:28:32;8.10;99.90
20446;DHT22;10382;49.140;9.234;2024-02-23T01:30:58;8.00;99.90
20446;DHT22;10382;49.140;9.234;2024-02-23T01:33:26;8.00;99.90
20446;DHT22;10382;49.140;9.234;2024-02-23T01:35:53;8.10;99.90
20446;DHT22;10382;49.140;9.234;2024-02-23T01:38:21;8.00;99.90
20446;DHT22;10382;49.140;9.234;2024-02-23T01:40:51;8.00;99.90
20446;DHT22;10382;49.140;9.234;2024-02-23T01:43:18;7.90;99.90
20446;DHT22;10382;49.140;9.234;2024-02-23T01:45:45;7.90;99.90
20446;DHT22;10382;49.140;9.234;2024-02-23T01:48:12;7.90;99.90
20446;DHT22;10382;49.140;9.234;2024-02-23T01:50:39;7.80;99.90
20446;DHT22;10382;49.140;9.234;2024-02-23T01:53:06;7.80;99.90
20446;DHT22;10382;49.140;9.234;2024-02-23T01:55:33;7.80;99.90
20446;DHT22;10382;49.140;9.234;2024-02-23T01:58:02;7.80;99.90
20446;DHT22;10382;49.140;9.234;2024-02-23T02:00:29;7.80;99.90
20446;DHT22;10382;49.140;9.234;2024-02-23T02:02:57;7.80;99.90
20446;DHT22;10382;49.140;9.234;2024-02-23T02:05:24;7.90;99.90
20446;DHT22;10382;49.140;9.234;2024-02-23T02:07:51;7.90;99.90
20446;DHT22;10382;49.140;9.234;2024-02-23T02:10:24;7.90;99.90
20446;DHT22;10382;49.140;9.234;2024-02-23T02:12:51;7.80;99.90
20446;DHT22;10382;49.140;9.234;2024-02-23T02:15:20;7.80;99.90
20446;DHT22;10382;49.140;9.234;2024-02-23T02:17:47;7.90;99.90
20446;DHT22;10382;49.140;9.234;2024-02-23T02:20:14;7.90;99.90
20446;DHT22;10382;49.140;9.234;2024-02-23T02:22:41;7.80;99.90
20446;DHT22;10382;49.140;9.234;2024-02-23T02:25:08;7.80;99.90
20446;DHT22;10382;49.140;9.234;2024-02-23T02:27:35;7.80;99.90
20446;DHT22;10382;49.140;9.234;2024-02-23T02:30:02;7.70;99.90
20446;DHT22;10382;49.140;9.234;2024-02-23T02:32:30;7.70;99.90
20446;DHT22;10382;49.140;9.234;2024-02-23T02:34:57;7.70;99.90
20446;DHT22;10382;49.140;9.234;2024-02-23T02:37:24;7.70;99.90
20446;DHT22;10382;49.140;9.234;2024-02-23T02:39:51;7.70;99.90
20446;DHT22;10382;49.140;9.234;2024-02-23T02:42:18;7.70;99.90
20446;DHT22;10382;49.140;9.234;2024-02-23T02:44:45;7.70;99.90
20446;DHT22;10382;49.140;9.234;2024-02-23T02:47:11;7.70;99.90
20446;DHT22;10382;49.140;9.234;2024-02-23T02:49:52;7.70;99.90
20446;DHT22;10382;49.140;9.234;2024-02-23T02:52:19;7.70;99.90
20446;DHT22;10382;49.140;9.234;2024-02-23T02:54:48;7.60;99.90
20446;DHT22;10382;49.140;9.234;2024-02-23T02:57:15;7.60;99.90
20446;DHT22;10382;49.140;9.234;2024-02-23T02:59:42;7.50;99.90
20446;DHT22;10382;49.140;9.234;2024-02-23T03:02:10;7.60;99.90
20446;DHT22;10382;49.140;9.234;2024-02-23T03:04:36;7.70;99.90
20446;DHT22;10382;49.140;9.234;2024-02-23T03:07:05;7.80;99.90
20446;DHT22;10382;49.140;9.234;2024-02-23T03:09:31;7.70;99.90
20446;DHT22;10382;49.140;9.234;2024-02-23T03:11:58;7.80;99.90
20446;DHT22;10382;49.140;9.234;2024-02-23T03:14:25;7.80;99.90
20446;DHT22;10382;49.140;9.234;2024-02-23T03:16:52;7.90;99.90
20446;DHT22;10382;49.140;9.234;2024-02-23T03:19:19;7.90;99.90
20446;DHT22;10382;49.140;9.234;2024-02-23T03:21:48;7.90;99.90
20446;DHT22;10382;49.140;9.234;2024-02-23T03:24:16;7.90;99.90
20446;DHT22;10382;49.140;9.234;2024-02-23T03:26:43;7.90;99.90
20446;DHT22;10382;49.140;9.234;2024-02-23T03:29:10;7.90;99.90
20446;DHT22;10382;49.140;9.234;2024-02-23T03:31:37;7.90;99.90
20446;DHT22;10382;49.140;9.234;2024-02-23T03:34:04;7.90;99.90
20446;DHT22;10382;49.140;9.234;2024-02-23T03:36:31;7.90;99.90
20446;DHT22;10382;49.140;9.234;2024-02-23T03:38:57;7.90;99.90
20446;DHT22;10382;49.140;9.234;2024-02-23T03:41:26;7.80;99.90
20446;DHT22;10382;49.140;9.234;2024-02-23T03:43:52;7.80;99.90
20446;DHT22;10382;49.140;9.234;2024-02-23T03:46:19;7.80;99.90
20446;DHT22;10382;49.140;9.234;2024-02-23T03:48:46;7.90;99.90
20446;DHT22;10382;49.140;9.234;2024-02-23T03:51:13;7.90;99.90
20446;DHT22;10382;49.140;9.234;2024-02-23T03:53:41;8.00;99.90
20446;DHT22;10382;49.140;9.234;2024-02-23T03:56:07;7.90;99.90
20446;DHT22;10382;49.140;9.234;2024-02-23T03:58:36;7.80;99.90
20446;DHT22;10382;49.140;9.234;2024-02-23T04:01:03;7.70;99.90
20446;DHT22;10382;49.140;9.234;2024-02-23T04:03:30;7.60;99.90
20446;DHT22;10382;49.140;9.234;2024-02-23T04:05:57;7.60;99.90
20446;DHT22;10382;49.140;9.234;2024-02-23T04:08:24;7.60;99.90
20446;DHT22;10382;49.140;9.234;2024-02-23T04:10:50;7.60;99.90
20446;DHT22;10382;49.140;9.234;2024-02-23T04:13:17;7.60;99.90
20446;DHT22;10382;49.140;9.234;2024-02-23T04:15:46;7.60;99.90
20446;DHT22;10382;49.140;9.234;2024-02-23T04:18:13;7.60;99.90
20446;DHT22;10382;49.140;9.234;2024-02-23T04:20:41;7.60;99.90
20446;DHT22;10382;49.140;9.234;2024-02-23T04:23:08;7.50;99.90
20446;DHT22;10382;49.140;9.234;2024-02-23T04:25:35;7.50;99.90
20446;DHT22;10382;49.140;9.234;2024-02-23T04:28:01;7.50;99.90
20446;DHT22;10382;49.140;9.234;2024-02-23T04:30:28;7.40;99.90
20446;DHT22;10382;49.140;9.234;2024-02-23T04:32:56;7.50;99.90
20446;DHT22;10382;49.140;9.234;2024-02-23T04:35:23;7.50;99.90
20446;DHT22;10382;49.140;9.234;2024-02-23T04:37:50;7.50;99.90
20446;DHT22;10382;49.140;9.234;2024-02-23T04:40:17;7.60;99.90
20446;DHT22;10382;49.140;9.234;2024-02-23T04:42:44;7.60;99.90
20446;DHT22;10382;49.140;9.234;2024-02-23T04:45:12;7.60;99.90
20446;DHT22;10382;49.140;9.234;2024-02-23T04:47:39;7.60;99.90
20446;DHT22;10382;49.140;9.234;2024-02-23T04:50:08;7.60;99.90
20446;DHT22;10382;49.140;9.234;2024-02-23T04:52:35;7.70;99.90
20446;DHT22;10382;49.140;9.234;2024-02-23T04:55:02;7.70;99.90
20446;DHT22;10382;49.140;9.234;2024-02-23T04:57:30;7.70;99.90
20446;DHT22;10382;49.140;9.234;2024-02-23T04:59:57;7.70;99.90
20446;DHT22;10382;49.140;9.234;2024-02-23T05:02:24;7.70;99.90
20446;DHT22;10382;49.140;9.234;2024-02-23T05:04:54;7.80;99.90
20446;DHT22;10382;49.140;9.234;2024-02-23T05:07:22;7.80;99.90
20446;DHT22;10382;49.140;9.234;2024-02-23T05:09:49;7.90;99.90
20446;DHT22;10382;49.140;9.234;2024-02-23T05:12:16;8.00;99.90
20446;DHT22;10382;49.140;9.234;2024-02-23T05:14:42;8.00;99.90
20446;DHT22;10382;49.140;9.234;2024-02-23T05:17:10;8.10;99.90
20446;DHT22;10382;49.140;9.234;2024-02-23T05:19:36;8.10;99.90
20446;DHT22;10382;49.140;9.234;2024-02-23T05:22:03;8.10;99.90
20446;DHT22;10382;49.140;9.234;2024-02-23T05:24:32;8.10;99.90
20446;DHT22;10382;49.140;9.234;2024-02-23T05:26:58;8.10;99.90
20446;DHT22;10382;49.140;9.234;2024-02-23T05:29:27;8.00;99.90
20446;DHT22;10382;49.140;9.234;2024-02-23T05:31:54;8.00;99.90
20446;DHT22;10382;49.140;9.234;2024-02-23T05:34:21;8.10;99.90
20446;DHT22;10382;49.140;9.234;2024-02-23T05:36:48;8.10;99.90
20446;DHT22;10382;49.140;9.234;2024-02-23T05:39:16;8.00;99.90
20446;DHT22;10382;49.140;9.234;2024-02-23T05:41:44;8.00;99.90
20446;DHT22;10382;49.140;9.234;2024-02-23T05:44:11;7.80;99.90
20446;DHT22;10382;49.140;9.234;2024-02-23T05:46:39;7.70;99.90
20446;DHT22;10382;49.140;9.234;2024-02-23T05:49:06;7.60;99.90
20446;DHT22;10382;49.140;9.234;2024-02-23T05:51:33;7.60;99.90
20446;DHT22;10382;49.140;9.234;2024-02-23T05:54:00;7.60;99.90
20446;DHT22;10382;49.140;9.234;2024-02-23T05:56:27;7.60;99.90
20446;DHT22;10382;49.140;9.234;2024-02-23T05:58:55;7.60;99.90
20446;DHT22;10382;49.140;9.234;2024-02-23T06:01:22;7.50;99.90
20446;DHT22;10382;49.140;9.234;2024-02-23T06:03:50;7.50;99.90
20446;DHT22;10382;49.140;9.234;2024-02-23T06:06:17;7.50;99.90
20446;DHT22;10382;49.140;9.234;2024-02-23T06:08:44;7.60;99.90
20446;DHT22;10382;49.140;9.234;2024-02-23T06:11:12;7.60;99.90
20446;DHT22;10382;49.140;9.234;2024-02-23T06:13:39;7.70;99.90
20446;DHT22;10382;49.140;9.234;2024-02-23T06:16:11;7.70;99.90
20446;DHT22;10382;49.140;9.234;2024-02-23T06:18:39;7.70;99.90
20446;DHT22;10382;49.140;9.234;2024-02-23T06:21:11;7.70;99.90
20446;DHT22;10382;49.140;9.234;2024-02-23T06:23:39;7.70;99.90
20446;DHT22;10382;49.140;9.234;2024-02-23T06:26:06;7.70;99.90
20446;DHT22;10382;49.140;9.234;2024-02-23T06:28:33;7.70;99.90
20446;DHT22;10382;49.140;9.234;2024-02-23T06:31:00;7.70;99.90
20446;DHT22;10382;49.140;9.234;2024-02-23T06:33:28;7.70;99.90
20446;DHT22;10382;49.140;9.234;2024-02-23T06:35:55;7.70;99.90
20446;DHT22;10382;49.140;9.234;2024-02-23T06:38:22;7.80;99.90
20446;DHT22;10382;49.140;9.234;2024-02-23T06:40:49;7.70;99.90
20446;DHT22;10382;49.140;9.234;2024-02-23T06:43:16;7.70;99.90
20446;DHT22;10382;49.140;9.234;2024-02-23T06:45:42;7.80;99.90
20446;DHT22;10382;49.140;9.234;2024-02-23T06:48:09;7.80;99.90
20446;DHT22;10382;49.140;9.234;2024-02-23T06:50:38;7.60;99.90
20446;DHT22;10382;49.140;9.234;2024-02-23T06:53:04;7.50;99.90
20446;DHT22;10382;49.140;9.234;2024-02-23T06:55:32;7.50;99.90
20446;DHT22;10382;49.140;9.234;2024-02-23T06:57:59;7.60;99.90
20446;DHT22;10382;49.140;9.234;2024-02-23T07:00:26;7.60;99.90
20446;DHT22;10382;49.140;9.234;2024-02-23T07:02:53;7.60;99.90
20446;DHT22;10382;49.140;9.234;2024-02-23T07:05:20;7.70;99.90
20446;DHT22;10382;49.140;9.234;2024-02-23T07:07:48;7.60;99.90
20446;DHT22;10382;49.140;9.234;2024-02-23T07:10:15;7.60;99.90
20446;DHT22;10382;49.140;9.234;2024-02-23T07:12:43;7.60;99.90
20446;DHT22;10382;49.140;9.234;2024-02-23T07:15:10;7.60;99.90
20446;DHT22;10382;49.140;9.234;2024-02-23T07:17:37;7.60;99.90
20446;DHT22;10382;49.140;9.234;2024-02-23T07:20:05;7.70;99.90
20446;DHT22;10382;49.140;9.234;2024-02-23T07:22:32;7.60;99.90
20446;DHT22;10382;49.140;9.234;2024-02-23T07:25:00;7.70;99.90
20446;DHT22;10382;49.140;9.234;2024-02-23T07:27:29;7.70;99.90
20446;DHT22;10382;49.140;9.234;2024-02-23T07:29:56;7.60;99.90
20446;DHT22;10382;49.140;9.234;2024-02-23T07:32:23;7.60;99.90
20446;DHT22;10382;49.140;9.234;2024-02-23T07:34:50;7.60;99.90
20446;DHT22;10382;49.140;9.234;2024-02-23T07:37:18;7.50;99.90
20446;DHT22;10382;49.140;9.234;2024-02-23T07:39:45;7.50;99.90
20446;DHT22;10382;49.140;9.234;2024-02-23T07:42:13;7.60;99.90
20446;DHT22;10382;49.140;9.234;2024-02-23T07:44:44;7.50;99.90
20446;DHT22;10382;49.140;9.234;2024-02-23T07:47:11;7.40;99.90
20446;DHT22;10382;49.140;9.234;2024-02-23T07:49:38;7.50;99.90
20446;DHT22;10382;49.140;9.234;2024-02-23T07:52:06;7.50;99.90
20446;DHT22;10382;49.140;9.234;2024-02-23T07:54:33;7.70;99.90
20446;DHT22;10382;49.140;9.234;2024-02-23T07:57:00;7.70;99.90
20446;DHT22;10382;49.140;9.234;2024-02-23T07:59:28;7.70;99.90
20446;DHT22;10382;49.140;9.234;2024-02-23T08:01:55;7.60;99.90
20446;DHT22;10382;49.140;9.234;2024-02-23T08:04:22;7.70;99.90
20446;DHT22;10382;49.140;9.234;2024-02-23T08:06:49;7.90;99.90
20446;DHT22;10382;49.140;9.234;2024-02-23T08:09:16;8.20;99.90
20446;DHT22;10382;49.140;9.234;2024-02-23T08:11:43;8.30;99.90
20446;DHT22;10382;49.140;9.234;2024-02-23T08:14:11;8.50;99.90
20446;DHT22;10382;49.140;9.234;2024-02-23T08:16:39;8.50;99.90
20446;DHT22;10382;49.140;9.234;2024-02-23T08:19:06;8.80;99.90
20446;DHT22;10382;49.140;9.234;2024-02-23T08:21:33;9.10;99.90
20446;DHT22;10382;49.140;9.234;2024-02-23T08:24:00;9.30;99.90
20446;DHT22;10382;49.140;9.234;2024-02-23T08:26:28;9.40;99.90
20446;DHT22;10382;49.140;9.234;2024-02-23T08:28:55;9.30;99.90
20446;DHT22;10382;49.140;9.234;2024-02-23T08:31:22;9.30;99.90
20446;DHT22;10382;49.140;9.234;2024-02-23T08:33:50;9.50;99.90
20446;DHT22;10382;49.140;9.234;2024-02-23T08:36:17;9.70;99.90
20446;DHT22;10382;49.140;9.234;2024-02-23T08:38:44;9.80;99.90
20446;DHT22;10382;49.140;9.234;2024-02-23T08:41:10;10.20;99.90
20446;DHT22;10382;49.140;9.234;2024-02-23T08:43:37;10.50;99.90
20446;DHT22;10382;49.140;9.234;2024-02-23T08:46:04;10.40;99.90
20446;DHT22;10382;49.140;9.234;2024-02-23T08:48:31;10.30;99.90
20446;DHT22;10382;49.140;9.234;2024-02-23T08:51:00;10.20;99.90
20446;DHT22;10382;49.140;9.234;2024-02-23T08:53:27;9.80;99.90
20446;DHT22;10382;49.140;9.234;2024-02-23T08:55:54;9.60;99.90
20446;DHT22;10382;49.140;9.234;2024-02-23T08:58:20;9.60;99.90
20446;DHT22;10382;49.140;9.234;2024-02-23T09:00:47;9.80;99.90
20446;DHT22;10382;49.140;9.234;2024-02-23T09:03:14;9.90;99.90
20446;DHT22;10382;49.140;9.234;2024-02-23T09:05:41;9.80;99.90
20446;DHT22;10382;49.140;9.234;2024-02-23T09:08:10;9.80;99.90
20446;DHT22;10382;49.140;9.234;2024-02-23T09:10:37;9.40;99.90
20446;DHT22;10382;49.140;9.234;2024-02-23T09:13:04;9.30;99.90
20446;DHT22;10382;49.140;9.234;2024-02-23T09:15:31;9.20;99.90
20446;DHT22;10382;49.140;9.234;2024-02-23T09:17:58;9.20;99.90
20446;DHT22;10382;49.140;9.234;2024-02-23T09:20:24;9.30;99.90
20446;DHT22;10382;49.140;9.234;2024-02-23T09:22:51;9.30;99.90
20446;DHT22;10382;49.140;9.234;2024-02-23T09:25:19;9.00;99.90
20446;DHT22;10382;49.140;9.234;2024-02-23T09:27:46;9.10;99.90
20446;DHT22;10382;49.140;9.234;2024-02-23T09:30:14;9.20;99.90
20446;DHT22;10382;49.140;9.234;2024-02-23T09:32:41;9.30;99.90
20446;DHT22;10382;49.140;9.234;2024-02-23T09:35:08;9.40;99.90
20446;DHT22;10382;49.140;9.234;2024-02-23T09:37:35;9.40;99.90
20446;DHT22;10382;49.140;9.234;2024-02-23T09:40:02;9.30;99.90
20446;DHT22;10382;49.140;9.234;2024-02-23T09:42:30;9.30;99.90
20446;DHT22;10382;49.140;9.234;2024-02-23T09:44:59;9.40;99.90
20446;DHT22;10382;49.140;9.234;2024-02-23T09:47:27;10.10;99.90
20446;DHT22;10382;49.140;9.234;2024-02-23T09:49:55;10.40;99.90
20446;DHT22;10382;49.140;9.234;2024-02-23T09:52:22;10.90;99.90
20446;DHT22;10382;49.140;9.234;2024-02-23T09:54:49;11.40;99.90
20446;DHT22;10382;49.140;9.234;2024-02-23T09:57:16;11.60;99.90
20446;DHT22;10382;49.140;9.234;2024-02-23T09:59:44;11.90;99.90
20446;DHT22;10382;49.140;9.234;2024-02-23T10:02:17;12.10;99.90
20446;DHT22;10382;49.140;9.234;2024-02-23T10:04:44;12.50;99.90
20446;DHT22;10382;49.140;9.234;2024-02-23T10:07:14;12.70;99.90
20446;DHT22;10382;49.140;9.234;2024-02-23T10:09:41;12.40;99.90
20446;DHT22;10382;49.140;9.234;2024-02-23T10:12:08;11.70;99.90
20446;DHT22;10382;49.140;9.234;2024-02-23T10:14:35;11.20;99.90
20446;DHT22;10382;49.140;9.234;2024-02-23T10:17:03;10.50;99.90
20446;DHT22;10382;49.140;9.234;2024-02-23T10:19:33;10.20;99.90
20446;DHT22;10382;49.140;9.234;2024-02-23T10:22:00;9.90;99.90
20446;DHT22;10382;49.140;9.234;2024-02-23T10:24:27;9.40;99.90
20446;DHT22;10382;49.140;9.234;2024-02-23T10:26:54;9.30;99.90
20446;DHT22;10382;49.140;9.234;2024-02-23T10:29:21;9.30;99.90
20446;DHT22;10382;49.140;9.234;2024-02-23T10:31:48;9.40;99.90
20446;DHT22;10382;49.140;9.234;2024-02-23T10:34:19;9.20;99.90
20446;DHT22;10382;49.140;9.234;2024-02-23T10:36:46;9.10;99.90
20446;DHT22;10382;49.140;9.234;2024-02-23T10:39:16;9.00;99.90
20446;DHT22;10382;49.140;9.234;2024-02-23T10:41:47;9.00;99.90
20446;DHT22;10382;49.140;9.234;2024-02-23T10:44:16;9.10;99.90
20446;DHT22;10382;49.140;9.234;2024-02-23T10:46:44;9.10;99.90
20446;DHT22;10382;49.140;9.234;2024-02-23T10:49:12;9.20;99.90
20446;DHT22;10382;49.140;9.234;2024-02-23T10:51:43;9.30;99.90
20446;DHT22;10382;49.140;9.234;2024-02-23T10:54:13;9.40;99.90
20446;DHT22;10382;49.140;9.234;2024-02-23T10:56:40;9.50;99.90
20446;DHT22;10382;49.140;9.234;2024-02-23T10:59:08;9.50;99.90
20446;DHT22;10382;49.140;9.234;2024-02-23T11:01:36;9.40;99.90
20446;DHT22;10382;49.140;9.234;2024-02-23T11:04:06;9.50;99.90
20446;DHT22;10382;49.140;9.234;2024-02-23T11:06:34;9.50;99.90
20446;DHT22;10382;49.140;9.234;2024-02-23T11:09:09;9.10;99.90
20446;DHT22;10382;49.140;9.234;2024-02-23T11:11:38;9.00;99.90
20446;DHT22;10382;49.140;9.234;2024-02-23T11:14:07;9.00;99.90
20446;DHT22;10382;49.140;9.234;2024-02-23T11:16:39;9.00;99.90
20446;DHT22;10382;49.140;9.234;2024-02-23T11:19:08;8.90;99.90
20446;DHT22;10382;49.140;9.234;2024-02-23T11:21:37;9.00;99.90
20446;DHT22;10382;49.140;9.234;2024-02-23T11:24:06;9.10;99.90
20446;DHT22;10382;49.140;9.234;2024-02-23T11:26:37;9.00;99.90
20446;DHT22;10382;49.140;9.234;2024-02-23T11:29:11;8.90;99.90
20446;DHT22;10382;49.140;9.234;2024-02-23T11:31:44;8.90;99.90
20446;DHT22;10382;49.140;9.234;2024-02-23T11:34:12;9.10;99.90
20446;DHT22;10382;49.140;9.234;2024-02-23T11:36:39;9.20;99.90
20446;DHT22;10382;49.140;9.234;2024-02-23T11:39:06;9.30;99.90
20446;DHT22;10382;49.140;9.234;2024-02-23T11:41:36;9.30;99.90
20446;DHT22;10382;49.140;9.234;2024-02-23T11:44:04;9.50;99.90
20446;DHT22;10382;49.140;9.234;2024-02-23T11:46:32;9.70;99.90
20446;DHT22;10382;49.140;9.234;2024-02-23T11:48:59;10.00;99.90
20446;DHT22;10382;49.140;9.234;2024-02-23T11:51:26;10.20;99.90
20446;DHT22;10382;49.140;9.234;2024-02-23T11:53:55;10.20;99.90
20446;DHT22;10382;49.140;9.234;2024-02-23T11:56:24;10.10;99.90
20446;DHT22;10382;49.140;9.234;2024-02-23T11:58:53;9.80;99.90
20446;DHT22;10382;49.140;9.234;2024-02-23T12:01:20;9.60;99.90
20446;DHT22;10382;49.140;9.234;2024-02-23T12:03:47;9.50;99.90
20446;DHT22;10382;49.140;9.234;2024-02-23T12:06:15;9.60;99.90
20446;DHT22;10382;49.140;9.234;2024-02-23T12:08:42;9.60;99.90
20446;DHT22;10382;49.140;9.234;2024-02-23T12:11:09;9.90;99.90
20446;DHT22;10382;49.140;9.234;2024-02-23T12:13:37;9.90;99.90
20446;DHT22;10382;49.140;9.234;2024-02-23T12:16:07;9.90;99.90
20446;DHT22;10382;49.140;9.234;2024-02-23T12:18:34;10.20;99.90
20446;DHT22;10382;49.140;9.234;2024-02-23T12:21:03;10.90;99.90
20446;DHT22;10382;49.140;9.234;2024-02-23T12:23:41;11.90;99.90
20446;DHT22;10382;49.140;9.234;2024-02-23T12:26:08;12.20;99.90
20446;DHT22;10382;49.140;9.234;2024-02-23T12:28:35;12.70;99.90
20446;DHT22;10382;49.140;9.234;2024-02-23T12:31:05;12.30;99.90
20446;DHT22;10382;49.140;9.234;2024-02-23T12:33:33;12.30;99.90
20446;DHT22;10382;49.140;9.234;2024-02-23T12:36:01;11.50;99.90
20446;DHT22;10382;49.140;9.234;2024-02-23T12:38:28;11.00;99.90
20446;DHT22;10382;49.140;9.234;2024-02-23T12:40:55;11.00;99.90
20446;DHT22;10382;49.140;9.234;2024-02-23T12:43:23;10.60;99.90
20446;DHT22;10382;49.140;9.234;2024-02-23T12:45:50;10.40;99.90
20446;DHT22;10382;49.140;9.234;2024-02-23T12:48:18;10.20;99.90
20446;DHT22;10382;49.140;9.234;2024-02-23T12:50:47;10.00;99.90
20446;DHT22;10382;49.140;9.234;2024-02-23T12:53:31;10.00;99.90
20446;DHT22;10382;49.140;9.234;2024-02-23T12:56:01;10.00;99.90
20446;DHT22;10382;49.140;9.234;2024-02-23T12:58:35;9.90;99.90
20446;DHT22;10382;49.140;9.234;2024-02-23T13:01:02;9.70;99.90
20446;DHT22;10382;49.140;9.234;2024-02-23T13:03:31;9.70;99.90
20446;DHT22;10382;49.140;9.234;2024-02-23T13:05:58;9.80;99.90
20446;DHT22;10382;49.140;9.234;2024-02-23T13:08:25;9.90;99.90
20446;DHT22;10382;49.140;9.234;2024-02-23T13:10:53;10.10;99.90
20446;DHT22;10382;49.140;9.234;2024-02-23T13:13:21;10.00;99.90
20446;DHT22;10382;49.140;9.234;2024-02-23T13:15:50;10.10;99.90
20446;DHT22;10382;49.140;9.234;2024-02-23T13:18:17;9.90;99.90
20446;DHT22;10382;49.140;9.234;2024-02-23T13:20:46;9.90;99.90
20446;DHT22;10382;49.140;9.234;2024-02-23T13:23:13;10.00;99.90
20446;DHT22;10382;49.140;9.234;2024-02-23T13:25:41;10.20;99.90
20446;DHT22;10382;49.140;9.234;2024-02-23T13:28:09;10.00;99.90
20446;DHT22;10382;49.140;9.234;2024-02-23T13:30:36;10.10;99.90
20446;DHT22;10382;49.140;9.234;2024-02-23T13:33:04;10.10;99.90
20446;DHT22;10382;49.140;9.234;2024-02-23T13:35:31;10.20;99.90
20446;DHT22;10382;49.140;9.234;2024-02-23T13:38:00;10.20;99.90
20446;DHT22;10382;49.140;9.234;2024-02-23T13:40:29;10.40;99.90
20446;DHT22;10382;49.140;9.234;2024-02-23T13:42:56;10.80;99.90
20446;DHT22;10382;49.140;9.234;2024-02-23T13:45:22;10.80;99.90
20446;DHT22;10382;49.140;9.234;2024-02-23T13:47:56;10.80;99.90
20446;DHT22;10382;49.140;9.234;2024-02-23T13:50:24;10.90;99.90
20446;DHT22;10382;49.140;9.234;2024-02-23T13:52:51;10.70;99.90
20446;DHT22;10382;49.140;9.234;2024-02-23T13:55:20;10.70;99.90
20446;DHT22;10382;49.140;9.234;2024-02-23T13:57:47;10.70;99.90
20446;DHT22;10382;49.140;9.234;2024-02-23T14:00:15;10.70;99.90
20446;DHT22;10382;49.140;9.234;2024-02-23T14:02:42;10.50;99.90
20446;DHT22;10382;49.140;9.234;2024-02-23T14:05:10;10.50;99.90
20446;DHT22;10382;49.140;9.234;2024-02-23T14:07:42;10.30;99.90
20446;DHT22;10382;49.140;9.234;2024-02-23T14:10:09;10.30;99.90
20446;DHT22;10382;49.140;9.234;2024-02-23T14:12:38;10.50;99.90
20446;DHT22;10382;49.140;9.234;2024-02-23T14:15:05;10.40;99.90
20446;DHT22;10382;49.140;9.234;2024-02-23T14:17:32;10.50;99.90
20446;DHT22;10382;49.140;9.234;2024-02-23T14:20:00;10.60;99.90
20446;DHT22;10382;49.140;9.234;2024-02-23T14:22:27;10.70;99.90
20446;DHT22;10382;49.140;9.234;2024-02-23T14:24:54;10.70;99.90
20446;DHT22;10382;49.140;9.234;2024-02-23T14:27:21;10.90;99.90
20446;DHT22;10382;49.140;9.234;2024-02-23T14:29:49;12.00;99.90
20446;DHT22;10382;49.140;9.234;2024-02-23T14:32:17;12.70;99.90
20446;DHT22;10382;49.140;9.234;2024-02-23T14:34:44;12.80;99.90
20446;DHT22;10382;49.140;9.234;2024-02-23T14:37:11;12.20;99.90
20446;DHT22;10382;49.140;9.234;2024-02-23T14:39:38;11.60;99.90
20446;DHT22;10382;49.140;9.234;2024-02-23T14:42:05;11.20;99.90
20446;DHT22;10382;49.140;9.234;2024-02-23T14:44:34;11.00;99.90
20446;DHT22;10382;49.140;9.234;2024-02-23T14:47:03;10.90;99.90
20446;DHT22;10382;49.140;9.234;2024-02-23T14:49:30;10.90;99.90
20446;DHT22;10382;49.140;9.234;2024-02-23T14:51:57;10.70;99.90
20446;DHT22;10382;49.140;9.234;2024-02-23T14:54:24;10.60;99.90
20446;DHT22;10382;49.140;9.234;2024-02-23T14:56:51;10.50;99.90
20446;DHT22;10382;49.140;9.234;2024-02-23T14:59:18;10.50;99.90
20446;DHT22;10382;49.140;9.234;2024-02-23T15:01:44;10.40;99.90
20446;DHT22;10382;49.140;9.234;2024-02-23T15:04:13;10.30;99.90
20446;DHT22;10382;49.140;9.234;2024-02-23T15:06:39;10.20;99.90
20446;DHT22;10382;49.140;9.234;2024-02-23T15:09:06;10.30;99.90
20446;DHT22;10382;49.140;9.234;2024-02-23T15:11:33;10.30;99.90
20446;DHT22;10382;49.140;9.234;2024-02-23T15:14:00;10.40;99.90
20446;DHT22;10382;49.140;9.234;2024-02-23T15:16:28;10.30;99.90
20446;DHT22;10382;49.140;9.234;2024-02-23T15:18:56;10.30;99.90
20446;DHT22;10382;49.140;9.234;2024-02-23T15:21:25;10.40;99.90
20446;DHT22;10382;49.140;9.234;2024-02-23T15:23:52;10.20;99.90
20446;DHT22;10382;49.140;9.234;2024-02-23T15:26:19;10.20;99.90
20446;DHT22;10382;49.140;9.234;2024-02-23T15:28:45;10.20;99.90
20446;DHT22;10382;49.140;9.234;2024-02-23T15:31:12;10.40;99.90
20446;DHT22;10382;49.140;9.234;2024-02-23T15:33:39;10.30;99.90
20446;DHT22;10382;49.140;9.234;2024-02-23T15:36:06;10.20;99.90
20446;DHT22;10382;49.140;9.234;2024-02-23T15:38:35;10.10;99.90
20446;DHT22;10382;49.140;9.234;2024-02-23T15:41:02;10.10;99.90
20446;DHT22;10382;49.140;9.234;2024-02-23T15:43:29;9.90;99.90